sensor_id;sensor_type;location;lat;lon;timestamp;pressure;altitude;pressure_sealevel;temperature;humidity
50710;BME280;37033;49.994;21.992;2023-05-22T00:00:15;99598.05;;;9.32;67.24
50710;BME280;37033;49.994;21.992;2023-05-22T00:03:06;99592.45;;;9.22;67.56
50710;BME280;37033;49.994;21.992;2023-05-22T00:05:37;99597.59;;;9.16;67.83
50710;BME280;37033;49.994;21.992;2023-05-22T00:08:09;99595.55;;;9.07;67.73
50710;BME280;37033;49.994;21.992;2023-05-22T00:10:40;99592.72;;;9.03;67.88
50710;BME280;37033;49.994;21.992;2023-05-22T00:13:11;99592.09;;;9.00;68.08
50710;BME280;37033;49.994;21.992;2023-05-22T00:15:41;99594.30;;;8.96;68.24
50710;BME280;37033;49.994;21.992;2023-05-22T00:18:12;99591.18;;;8.91;68.44
50710;BME280;37033;49.994;21.992;2023-05-22T00:20:43;99591.09;;;8.88;68.48
50710;BME280;37033;49.994;21.992;2023-05-22T00:23:16;99590.16;;;8.85;68.29
50710;BME280;37033;49.994;21.992;2023-05-22T00:25:47;99591.00;;;8.81;68.62
50710;BME280;37033;49.994;21.992;2023-05-22T00:28:19;99588.09;;;8.77;68.74
50710;BME280;37033;49.994;21.992;2023-05-22T00:30:50;99587.70;;;8.73;68.89
50710;BME280;37033;49.994;21.992;2023-05-22T00:33:20;99586.26;;;8.64;68.85
50710;BME280;37033;49.994;21.992;2023-05-22T00:35:51;99581.44;;;8.58;68.98
50710;BME280;37033;49.994;21.992;2023-05-22T00:38:30;99585.36;;;8.53;69.43
50710;BME280;37033;49.994;21.992;2023-05-22T00:41:02;99583.29;;;8.44;69.93
50710;BME280;37033;49.994;21.992;2023-05-22T00:43:34;99584.54;;;8.35;70.23
50710;BME280;37033;49.994;21.992;2023-05-22T00:46:05;99583.69;;;8.28;70.64
50710;BME280;37033;49.994;21.992;2023-05-22T00:48:36;99582.67;;;8.24;70.83
50710;BME280;37033;49.994;21.992;2023-05-22T00:51:07;99583.00;;;8.20;71.17
50710;BME280;37033;49.994;21.992;2023-05-22T00:53:38;99585.86;;;8.17;71.36
50710;BME280;37033;49.994;21.992;2023-05-22T00:56:09;99586.42;;;8.16;71.31
50710;BME280;37033;49.994;21.992;2023-05-22T00:58:40;99585.56;;;8.13;71.47
50710;BME280;37033;49.994;21.992;2023-05-22T01:01:12;99587.61;;;8.11;71.57
50710;BME280;37033;49.994;21.992;2023-05-22T01:03:44;99585.76;;;8.09;71.62
50710;BME280;37033;49.994;21.992;2023-05-22T01:06:15;99580.52;;;8.06;72.00
50710;BME280;37033;49.994;21.992;2023-05-22T01:08:47;99577.71;;;8.01;71.96
50710;BME280;37033;49.994;21.992;2023-05-22T01:11:20;99577.55;;;7.99;71.72
50710;BME280;37033;49.994;21.992;2023-05-22T01:13:56;99571.81;;;7.97;71.79
50710;BME280;37033;49.994;21.992;2023-05-22T01:16:41;99570.36;;;7.92;71.95
50710;BME280;37033;49.994;21.992;2023-05-22T01:19:28;99569.36;;;7.85;72.08
50710;BME280;37033;49.994;21.992;2023-05-22T01:22:11;99574.48;;;7.79;72.41
50710;BME280;37033;49.994;21.992;2023-05-22T01:25:02;99574.38;;;7.76;72.34
50710;BME280;37033;49.994;21.992;2023-05-22T01:27:49;99577.17;;;7.74;72.48
50710;BME280;37033;49.994;21.992;2023-05-22T01:30:47;99576.07;;;7.72;72.53
50710;BME280;37033;49.994;21.992;2023-05-22T01:33:20;99574.49;;;7.69;72.46
50710;BME280;37033;49.994;21.992;2023-05-22T01:35:55;99574.80;;;7.66;72.44
50710;BME280;37033;49.994;21.992;2023-05-22T01:38:29;99578.41;;;7.64;72.63
50710;BME280;37033;49.994;21.992;2023-05-22T01:41:01;99573.13;;;7.62;72.62
50710;BME280;37033;49.994;21.992;2023-05-22T01:43:32;99577.48;;;7.60;72.65
50710;BME280;37033;49.994;21.992;2023-05-22T01:46:03;99577.77;;;7.58;72.76
50710;BME280;37033;49.994;21.992;2023-05-22T01:48:34;99581.45;;;7.58;72.63
50710;BME280;37033;49.994;21.992;2023-05-22T01:51:10;99577.05;;;7.56;72.76
50710;BME280;37033;49.994;21.992;2023-05-22T01:53:46;99573.52;;;7.53;72.71
50710;BME280;37033;49.994;21.992;2023-05-22T01:56:24;99569.30;;;7.49;72.64
50710;BME280;37033;49.994;21.992;2023-05-22T01:59:03;99573.22;;;7.47;72.77
50710;BME280;37033;49.994;21.992;2023-05-22T02:01:39;99571.83;;;7.44;72.77
50710;BME280;37033;49.994;21.992;2023-05-22T02:04:11;99566.92;;;7.42;72.52
50710;BME280;37033;49.994;21.992;2023-05-22T02:06:43;99565.90;;;7.38;72.54
50710;BME280;37033;49.994;21.992;2023-05-22T02:09:15;99564.73;;;7.35;72.79
50710;BME280;37033;49.994;21.992;2023-05-22T02:11:47;99562.23;;;7.31;72.69
50710;BME280;37033;49.994;21.992;2023-05-22T02:14:19;99565.55;;;7.28;72.69
50710;BME280;37033;49.994;21.992;2023-05-22T02:16:50;99564.39;;;7.25;72.76
50710;BME280;37033;49.994;21.992;2023-05-22T02:19:21;99560.48;;;7.22;72.76
50710;BME280;37033;49.994;21.992;2023-05-22T02:21:52;99562.55;;;7.19;72.71
50710;BME280;37033;49.994;21.992;2023-05-22T02:24:23;99560.39;;;7.15;72.84
50710;BME280;37033;49.994;21.992;2023-05-22T02:26:54;99557.72;;;7.11;72.97
50710;BME280;37033;49.994;21.992;2023-05-22T02:29:25;99556.31;;;7.08;73.01
50710;BME280;37033;49.994;21.992;2023-05-22T02:31:55;99554.25;;;7.05;73.09
50710;BME280;37033;49.994;21.992;2023-05-22T02:34:26;99556.46;;;7.02;73.09
50710;BME280;37033;49.994;21.992;2023-05-22T02:36:57;99558.30;;;6.99;73.00
50710;BME280;37033;49.994;21.992;2023-05-22T02:39:28;99562.98;;;6.97;73.17
50710;BME280;37033;49.994;21.992;2023-05-22T02:41:59;99565.02;;;6.94;73.35
50710;BME280;37033;49.994;21.992;2023-05-22T02:44:30;99568.11;;;6.91;73.40
50710;BME280;37033;49.994;21.992;2023-05-22T02:47:01;99568.12;;;6.88;73.69
50710;BME280;37033;49.994;21.992;2023-05-22T02:49:31;99568.20;;;6.86;73.63
50710;BME280;37033;49.994;21.992;2023-05-22T02:52:02;99567.21;;;6.84;73.81
50710;BME280;37033;49.994;21.992;2023-05-22T02:54:33;99568.04;;;6.83;73.70
50710;BME280;37033;49.994;21.992;2023-05-22T02:57:04;99570.50;;;6.83;73.79
50710;BME280;37033;49.994;21.992;2023-05-22T02:59:35;99571.29;;;6.82;73.71
50710;BME280;37033;49.994;21.992;2023-05-22T03:02:07;99569.55;;;6.80;74.19
50710;BME280;37033;49.994;21.992;2023-05-22T03:04:38;99569.17;;;6.79;73.93
50710;BME280;37033;49.994;21.992;2023-05-22T03:07:09;99567.61;;;6.78;74.02
50710;BME280;37033;49.994;21.992;2023-05-22T03:09:40;99568.77;;;6.77;74.27
50710;BME280;37033;49.994;21.992;2023-05-22T03:12:11;99572.47;;;6.76;74.33
50710;BME280;37033;49.994;21.992;2023-05-22T03:14:42;99568.69;;;6.75;74.41
50710;BME280;37033;49.994;21.992;2023-05-22T03:17:13;99568.25;;;6.73;74.59
50710;BME280;37033;49.994;21.992;2023-05-22T03:19:44;99570.31;;;6.72;74.86
50710;BME280;37033;49.994;21.992;2023-05-22T03:22:15;99567.58;;;6.72;74.54
50710;BME280;37033;49.994;21.992;2023-05-22T03:24:46;99566.73;;;6.73;74.80
50710;BME280;37033;49.994;21.992;2023-05-22T03:27:17;99567.86;;;6.76;75.06
